createdAt,value
2019-03-18T00:01:48.073Z,94.43
2019-03-18T00:04:14.378Z,94.07
2019-03-18T00:06:40.683Z,94.28
2019-03-18T00:09:07.023Z,94.17
2019-03-18T00:11:33.327Z,94.31
2019-03-18T00:13:59.817Z,94.45
2019-03-18T00:16:26.123Z,94.71
2019-03-18T00:18:52.539Z,94.55
2019-03-18T00:21:18.856Z,94.63
2019-03-18T00:23:45.205Z,94.60
2019-03-18T00:26:11.508Z,94.45
2019-03-18T00:28:37.817Z,94.30
2019-03-18T00:31:04.139Z,93.93
2019-03-18T00:33:30.444Z,93.35
2019-03-18T00:35:58.154Z,92.66
2019-03-18T00:38:23.133Z,92.17
2019-03-18T00:40:49.431Z,91.76
2019-03-18T00:43:15.749Z,91.43
2019-03-18T00:45:42.061Z,91.19
2019-03-18T00:48:08.374Z,90.96
2019-03-18T00:50:34.701Z,90.92
2019-03-18T00:53:01.016Z,90.50
2019-03-18T00:55:27.325Z,90.27
2019-03-18T00:57:53.623Z,90.19
2019-03-18T01:00:19.938Z,90.17
2019-03-18T01:02:49.127Z,90.01
2019-03-18T01:05:12.566Z,89.87
2019-03-18T01:07:38.872Z,89.54
2019-03-18T01:10:05.175Z,89.58
2019-03-18T01:12:31.624Z,89.41
2019-03-18T01:14:57.881Z,89.39
2019-03-18T01:17:24.188Z,89.30
2019-03-18T01:19:50.494Z,89.18
2019-03-18T01:22:16.830Z,89.08
2019-03-18T01:24:43.146Z,88.86
2019-03-18T01:27:09.451Z,88.88
2019-03-18T01:29:35.757Z,88.73
2019-03-18T01:32:02.077Z,88.72
2019-03-18T01:34:28.387Z,88.55
2019-03-18T01:36:54.692Z,88.51
2019-03-18T01:39:21.039Z,88.21
2019-03-18T01:41:47.342Z,88.28
2019-03-18T01:44:13.660Z,88.12
2019-03-18T01:46:39.949Z,88.05
2019-03-18T01:49:06.256Z,87.87
2019-03-18T01:51:32.562Z,87.84
2019-03-18T01:53:58.873Z,87.54
2019-03-18T01:56:25.192Z,87.48
2019-03-18T01:58:51.483Z,87.20
2019-03-18T02:01:17.832Z,87.11
2019-03-18T02:03:44.125Z,86.94
2019-03-18T02:06:10.437Z,86.79
2019-03-18T02:08:36.744Z,86.53
2019-03-18T02:11:03.053Z,86.38
2019-03-18T02:13:29.359Z,86.36
2019-03-18T02:15:55.670Z,86.18
2019-03-18T02:18:21.980Z,86.03
2019-03-18T02:20:48.283Z,85.77
2019-03-18T02:23:14.612Z,85.57
2019-03-18T02:25:40.924Z,85.43
2019-03-18T02:28:07.220Z,85.31
2019-03-18T02:30:33.529Z,85.08
2019-03-18T02:32:59.833Z,85.01
2019-03-18T02:35:26.156Z,85.01
2019-03-18T02:37:52.615Z,84.98
2019-03-18T02:40:18.776Z,84.77
2019-03-18T02:42:45.086Z,84.71
2019-03-18T02:45:11.395Z,84.47
2019-03-18T02:47:37.708Z,84.53
2019-03-18T02:50:04.008Z,84.44
2019-03-18T02:52:30.321Z,84.32
2019-03-18T02:54:56.631Z,84.25
2019-03-18T02:57:22.937Z,84.20
2019-03-18T02:59:49.264Z,84.12
2019-03-18T03:02:15.549Z,84.09
2019-03-18T03:04:41.863Z,84.06
2019-03-18T03:07:08.174Z,84.02
2019-03-18T03:09:34.507Z,83.96
2019-03-18T03:12:00.807Z,83.85
2019-03-18T03:14:27.116Z,83.77
2019-03-18T03:16:53.429Z,83.73
2019-03-18T03:19:19.731Z,83.58
2019-03-18T03:21:46.045Z,83.43
2019-03-18T03:24:12.344Z,83.39
2019-03-18T03:26:38.657Z,83.26
2019-03-18T03:29:04.961Z,83.08
2019-03-18T03:31:31.267Z,82.97
2019-03-18T03:33:57.574Z,82.89
2019-03-18T03:36:23.881Z,82.73
2019-03-18T03:38:50.191Z,82.55
2019-03-18T03:41:18.311Z,82.42
2019-03-18T03:43:42.803Z,82.34
2019-03-18T03:46:09.105Z,82.14
2019-03-18T03:48:35.460Z,82.21
2019-03-18T03:51:01.744Z,81.94
2019-03-18T03:53:30.864Z,81.91
2019-03-18T03:55:54.372Z,81.83
2019-03-18T03:58:20.680Z,81.78
2019-03-18T04:00:46.992Z,81.66
2019-03-18T04:03:13.301Z,81.67
2019-03-18T04:05:39.609Z,81.56
2019-03-18T04:08:05.912Z,81.44
2019-03-18T04:10:32.239Z,81.46
2019-03-18T04:12:58.551Z,81.43
2019-03-18T04:15:24.847Z,81.37
2019-03-18T04:17:51.157Z,81.36
2019-03-18T04:20:17.493Z,81.38
2019-03-18T04:22:43.791Z,81.40
2019-03-18T04:25:10.088Z,81.37
2019-03-18T04:27:36.399Z,81.32
2019-03-18T04:30:02.717Z,81.37
2019-03-18T04:32:29.054Z,81.27
2019-03-18T04:34:55.351Z,81.38
2019-03-18T04:37:21.655Z,81.45
2019-03-18T04:39:47.964Z,81.57
2019-03-18T04:42:14.271Z,81.47
2019-03-18T04:44:40.582Z,81.50
2019-03-18T04:47:14.344Z,81.50
2019-03-18T04:49:33.204Z,81.68
2019-03-18T04:51:59.515Z,81.94
2019-03-18T04:54:25.829Z,82.28
2019-03-18T04:56:52.201Z,82.55
2019-03-18T04:59:19.235Z,82.97
2019-03-18T05:01:45.541Z,83.38
2019-03-18T05:04:11.839Z,83.88
2019-03-18T05:06:38.179Z,84.34
2019-03-18T05:09:04.484Z,85.14
2019-03-18T05:11:30.954Z,85.75
2019-03-18T05:13:57.375Z,86.80
2019-03-18T05:16:23.573Z,87.88
2019-03-18T05:18:49.880Z,88.92
2019-03-18T05:21:16.189Z,90.06
2019-03-18T05:23:42.508Z,90.96
2019-03-18T05:26:08.811Z,92.07
2019-03-18T05:28:35.142Z,93.35
2019-03-18T05:31:01.446Z,94.00
2019-03-18T05:33:27.762Z,94.71
2019-03-18T05:35:54.078Z,95.71
2019-03-18T05:38:20.392Z,95.75
2019-03-18T05:40:46.706Z,96.58
2019-03-18T05:43:13.005Z,96.98
2019-03-18T05:45:39.381Z,97.15
2019-03-18T05:48:05.762Z,97.62
2019-03-18T05:50:32.011Z,73.16
2019-03-18T05:52:58.367Z,68.13
2019-03-18T05:55:24.681Z,67.93
2019-03-18T05:57:50.996Z,64.99
2019-03-18T06:00:17.307Z,62.74
2019-03-18T06:02:46.680Z,59.25
2019-03-18T06:05:09.912Z,59.81
2019-03-18T06:07:36.227Z,59.27
2019-03-18T06:10:02.530Z,59.35
2019-03-18T06:12:28.840Z,58.03
2019-03-18T06:14:55.147Z,56.71
2019-03-18T06:17:21.469Z,56.96
2019-03-18T06:19:47.776Z,57.45
2019-03-18T06:22:14.085Z,56.65
2019-03-18T06:24:40.436Z,55.00
2019-03-18T06:27:06.730Z,55.15
2019-03-18T06:29:33.102Z,54.77
2019-03-18T06:31:59.380Z,54.34
2019-03-18T06:34:25.717Z,53.98
2019-03-18T06:36:52.040Z,53.82
2019-03-18T06:39:18.412Z,53.57
2019-03-18T06:41:44.758Z,52.84
2019-03-18T06:44:11.079Z,53.38
2019-03-18T06:46:37.386Z,52.45
2019-03-18T06:49:03.728Z,51.73
2019-03-18T06:51:30.040Z,51.94
2019-03-18T06:53:56.371Z,51.48
2019-03-18T06:56:22.714Z,50.40
2019-03-18T06:58:49.802Z,50.62
2019-03-18T07:01:16.114Z,50.74
2019-03-18T07:03:42.420Z,49.36
2019-03-18T07:06:08.732Z,49.74
2019-03-18T07:08:35.028Z,48.99
2019-03-18T07:11:01.336Z,48.88
2019-03-18T07:13:27.648Z,49.10
2019-03-18T07:15:53.983Z,48.88
2019-03-18T07:18:20.293Z,47.38
2019-03-18T07:20:46.612Z,47.70
2019-03-18T07:23:13.014Z,47.76
2019-03-18T07:25:39.329Z,47.76
2019-03-18T07:28:05.641Z,46.64
2019-03-18T07:30:31.949Z,46.12
2019-03-18T07:32:58.264Z,44.43
2019-03-18T07:35:24.571Z,45.37
2019-03-18T07:37:50.884Z,45.50
2019-03-18T07:40:17.203Z,44.41
2019-03-18T07:42:43.503Z,45.07
2019-03-18T07:45:09.824Z,45.38
2019-03-18T07:47:36.128Z,45.04
2019-03-18T07:50:02.435Z,43.55
2019-03-18T07:52:28.746Z,43.48
2019-03-18T07:54:55.046Z,44.30
2019-03-18T07:57:21.366Z,44.69
2019-03-18T07:59:47.664Z,43.28
2019-03-18T08:02:13.976Z,44.08
2019-03-18T08:04:40.281Z,43.24
2019-03-18T08:07:06.617Z,42.59
2019-03-18T08:09:32.922Z,43.06
2019-03-18T08:11:59.229Z,43.25
2019-03-18T08:14:25.540Z,41.46
2019-03-18T08:16:51.855Z,42.00
2019-03-18T08:19:18.164Z,41.44
2019-03-18T08:21:44.482Z,40.91
2019-03-18T08:24:10.779Z,40.75
2019-03-18T08:26:37.145Z,40.75
2019-03-18T08:29:03.457Z,39.62
2019-03-18T08:31:29.769Z,39.74
2019-03-18T08:33:56.080Z,39.80
2019-03-18T08:36:22.399Z,38.91
2019-03-18T08:38:48.707Z,39.74
2019-03-18T08:41:15.023Z,40.30
2019-03-18T08:43:41.325Z,39.86
2019-03-18T08:46:07.638Z,39.72
2019-03-18T08:48:33.958Z,39.36
2019-03-18T08:51:00.263Z,39.31
2019-03-18T08:53:26.572Z,38.58
2019-03-18T08:55:52.880Z,39.74
2019-03-18T08:58:19.311Z,38.87
2019-03-18T09:00:45.622Z,38.91
2019-03-18T09:03:11.946Z,38.48
2019-03-18T09:05:38.249Z,37.84
2019-03-18T09:08:04.576Z,37.59
2019-03-18T09:10:30.884Z,38.51
2019-03-18T09:12:57.189Z,37.58
2019-03-18T09:15:23.519Z,37.68
2019-03-18T09:17:49.830Z,37.25
2019-03-18T09:20:16.136Z,36.50
2019-03-18T09:22:42.450Z,36.35
2019-03-18T09:25:08.762Z,36.30
2019-03-18T09:27:35.102Z,35.82
2019-03-18T09:30:01.441Z,35.87
2019-03-18T09:32:27.750Z,36.27
2019-03-18T09:34:54.874Z,35.97
2019-03-18T09:37:20.460Z,34.91
2019-03-18T09:39:46.768Z,35.36
2019-03-18T09:42:13.088Z,35.24
2019-03-18T09:44:39.392Z,35.39
2019-03-18T09:47:05.718Z,35.05
2019-03-18T09:49:32.027Z,34.85
2019-03-18T09:51:58.355Z,35.13
2019-03-18T09:54:24.661Z,34.44
2019-03-18T09:56:51.021Z,34.16
2019-03-18T09:59:17.337Z,33.72
2019-03-18T10:01:44.576Z,34.00
2019-03-18T10:04:09.983Z,33.43
2019-03-18T10:06:36.294Z,33.92
2019-03-18T10:09:02.606Z,33.45
2019-03-18T10:11:28.931Z,33.18
2019-03-18T10:13:55.324Z,33.42
2019-03-18T10:16:21.629Z,32.82
2019-03-18T10:18:47.948Z,32.52
2019-03-18T10:21:14.303Z,32.07
2019-03-18T10:23:40.651Z,30.96
2019-03-18T10:26:06.961Z,31.14
2019-03-18T10:28:33.278Z,31.66
2019-03-18T10:30:59.590Z,31.36
2019-03-18T10:33:25.903Z,31.50
2019-03-18T10:35:54.199Z,30.69
2019-03-18T10:38:18.575Z,31.54
2019-03-18T10:40:44.908Z,31.65
2019-03-18T10:43:11.213Z,31.97
2019-03-18T10:45:37.520Z,31.98
2019-03-18T10:48:03.845Z,31.14
2019-03-18T10:50:30.150Z,31.07
2019-03-18T10:52:56.500Z,29.62
2019-03-18T10:55:22.803Z,30.70
2019-03-18T10:57:49.115Z,30.41
2019-03-18T11:00:15.490Z,31.38
2019-03-18T11:02:44.680Z,31.55
2019-03-18T11:05:08.417Z,31.21
2019-03-18T11:07:34.417Z,31.08
2019-03-18T11:10:00.732Z,30.62
2019-03-18T11:12:27.037Z,30.42
2019-03-18T11:14:53.343Z,30.60
2019-03-18T11:17:19.658Z,30.20
2019-03-18T11:19:57.579Z,29.37
2019-03-18T11:22:12.303Z,29.51
2019-03-18T11:24:38.613Z,29.28
2019-03-18T11:27:04.930Z,29.59
2019-03-18T11:29:31.241Z,29.99
2019-03-18T11:31:57.585Z,29.96
2019-03-18T11:34:23.886Z,29.89
2019-03-18T11:36:50.227Z,29.81
2019-03-18T11:39:16.531Z,29.65
2019-03-18T11:41:42.858Z,29.73
2019-03-18T11:44:09.166Z,29.37
2019-03-18T11:46:35.496Z,28.96
2019-03-18T11:49:01.826Z,29.18
2019-03-18T11:51:28.146Z,28.72
2019-03-18T11:53:54.449Z,28.98
2019-03-18T11:56:20.792Z,28.87
2019-03-18T11:58:47.093Z,29.05
2019-03-18T12:01:13.401Z,28.67
2019-03-18T12:03:39.712Z,29.32
2019-03-18T12:06:06.043Z,28.97
2019-03-18T12:08:32.351Z,28.89
2019-03-18T12:10:58.733Z,29.12
2019-03-18T12:13:24.977Z,28.65
2019-03-18T12:15:51.285Z,27.79
2019-03-18T12:18:17.608Z,28.14
2019-03-18T12:20:43.920Z,27.72
2019-03-18T12:23:10.225Z,27.70
2019-03-18T12:25:36.580Z,27.10
2019-03-18T12:28:05.238Z,27.78
2019-03-18T12:30:29.216Z,27.71
2019-03-18T12:32:55.522Z,28.04
2019-03-18T12:35:21.833Z,27.56
2019-03-18T12:37:48.142Z,27.86
2019-03-18T12:40:14.470Z,27.52
2019-03-18T12:42:40.784Z,27.44
2019-03-18T12:45:08.809Z,26.56
2019-03-18T12:47:33.429Z,27.62
2019-03-18T12:49:59.734Z,27.67
2019-03-18T12:52:26.076Z,28.45
2019-03-18T12:54:52.375Z,28.83
2019-03-18T12:57:18.687Z,28.14
2019-03-18T12:59:45.030Z,27.45
2019-03-18T13:02:11.377Z,27.38
2019-03-18T13:04:37.683Z,27.26
2019-03-18T13:07:03.994Z,27.47
2019-03-18T13:09:30.311Z,27.83
2019-03-18T13:11:56.632Z,28.68
2019-03-18T13:14:22.964Z,28.81
2019-03-18T13:16:49.307Z,28.21
2019-03-18T13:19:15.620Z,27.28
2019-03-18T13:21:41.935Z,27.21
2019-03-18T13:24:08.238Z,27.41
2019-03-18T13:26:34.578Z,27.57
2019-03-18T13:29:00.958Z,27.67
2019-03-18T13:31:27.192Z,27.87
2019-03-18T13:33:53.497Z,27.87
2019-03-18T13:36:19.804Z,27.52
2019-03-18T13:38:46.176Z,27.08
2019-03-18T13:41:12.477Z,26.17
2019-03-18T13:43:38.869Z,25.61
2019-03-18T13:46:05.191Z,26.55
2019-03-18T13:48:31.492Z,27.49
2019-03-18T13:50:57.800Z,27.42
2019-03-18T13:53:24.112Z,27.81
2019-03-18T13:55:50.440Z,28.33
2019-03-18T13:58:16.747Z,28.13
2019-03-18T14:00:43.072Z,28.37
2019-03-18T14:03:09.371Z,28.20
2019-03-18T14:05:35.706Z,27.31
2019-03-18T14:08:02.027Z,27.85
2019-03-18T14:10:28.331Z,27.25
2019-03-18T14:12:54.648Z,26.19
2019-03-18T14:15:20.970Z,25.95
2019-03-18T14:17:47.295Z,24.74
2019-03-18T14:20:13.599Z,24.99
2019-03-18T14:22:39.905Z,25.23
2019-03-18T14:25:06.223Z,25.20
2019-03-18T14:27:32.532Z,24.91
2019-03-18T14:29:58.862Z,24.60
2019-03-18T14:32:25.171Z,25.13
2019-03-18T14:34:51.481Z,25.02
2019-03-18T14:37:17.789Z,25.57
2019-03-18T14:39:44.095Z,25.03
2019-03-18T14:42:10.408Z,25.63
2019-03-18T14:44:36.710Z,25.23
2019-03-18T14:47:03.041Z,25.38
2019-03-18T14:49:29.346Z,25.35
2019-03-18T14:51:55.659Z,25.42
2019-03-18T14:54:21.969Z,25.22
2019-03-18T14:56:48.277Z,25.87
2019-03-18T14:59:14.599Z,25.65
2019-03-18T15:01:40.905Z,26.48
2019-03-18T15:04:07.265Z,25.72
2019-03-18T15:06:33.573Z,23.95
2019-03-18T15:08:59.880Z,24.28
2019-03-18T15:11:26.195Z,30.17
2019-03-18T15:13:52.511Z,35.33
2019-03-18T15:16:18.873Z,28.83
2019-03-18T15:18:45.197Z,25.55
2019-03-18T15:21:11.505Z,25.15
2019-03-18T15:23:37.822Z,25.22
2019-03-18T15:26:05.272Z,24.74
2019-03-18T15:28:30.433Z,24.51
2019-03-18T15:30:56.747Z,24.06
2019-03-18T15:33:23.089Z,24.69
2019-03-18T15:35:49.405Z,25.36
2019-03-18T15:38:15.730Z,25.19
2019-03-18T15:40:42.021Z,25.64
2019-03-18T15:43:08.333Z,25.63
2019-03-18T15:45:34.679Z,26.29
2019-03-18T15:48:00.988Z,25.89
2019-03-18T15:50:27.334Z,25.96
2019-03-18T15:52:53.645Z,25.27
2019-03-18T15:55:19.972Z,25.90
2019-03-18T15:57:46.299Z,26.04
2019-03-18T16:00:12.604Z,26.81
2019-03-18T16:02:38.954Z,27.08
2019-03-18T16:05:05.264Z,27.00
2019-03-18T16:07:31.572Z,26.49
2019-03-18T16:09:57.895Z,26.16
2019-03-18T16:12:24.288Z,25.48
2019-03-18T16:14:50.603Z,25.93
2019-03-18T16:17:16.918Z,25.71
2019-03-18T16:19:43.227Z,25.95
2019-03-18T16:22:09.587Z,25.81
2019-03-18T16:24:36.006Z,25.40
2019-03-18T16:27:02.343Z,25.32
2019-03-18T16:29:28.636Z,25.79
2019-03-18T16:31:54.952Z,25.85
2019-03-18T16:34:21.312Z,25.55
2019-03-18T16:36:47.577Z,25.82
2019-03-18T16:39:13.899Z,26.70
2019-03-18T16:41:40.234Z,26.46
2019-03-18T16:44:06.555Z,27.21
2019-03-18T16:46:32.942Z,27.73
2019-03-18T16:48:59.220Z,28.21
2019-03-18T16:51:25.528Z,28.29
2019-03-18T16:53:51.848Z,29.04
2019-03-18T16:56:18.164Z,28.87
2019-03-18T16:58:44.513Z,28.87
2019-03-18T17:01:10.821Z,29.52
2019-03-18T17:03:37.121Z,29.24
2019-03-18T17:06:03.483Z,28.71
2019-03-18T17:08:29.751Z,28.47
2019-03-18T17:10:56.063Z,29.42
2019-03-18T17:13:22.385Z,30.18
2019-03-18T17:15:48.719Z,30.92
2019-03-18T17:18:17.778Z,31.14
2019-03-18T17:20:41.345Z,30.90
2019-03-18T17:23:07.662Z,31.31
2019-03-18T17:25:33.963Z,32.07
2019-03-18T17:28:00.279Z,33.45
2019-03-18T17:30:26.948Z,32.69
2019-03-18T17:32:52.918Z,32.57
2019-03-18T17:35:19.230Z,32.98
2019-03-18T17:37:45.540Z,33.14
2019-03-18T17:40:11.845Z,32.85
2019-03-18T17:42:38.160Z,32.64
2019-03-18T17:45:04.515Z,33.04
2019-03-18T17:47:30.777Z,33.36
2019-03-18T17:49:57.374Z,33.75
2019-03-18T17:52:23.688Z,34.14
2019-03-18T17:54:49.993Z,34.74
2019-03-18T17:57:16.305Z,35.07
2019-03-18T17:59:42.612Z,35.23
2019-03-18T18:02:08.948Z,35.18
2019-03-18T18:04:35.264Z,35.33
2019-03-18T18:07:01.572Z,35.28
2019-03-18T18:09:27.882Z,35.55
2019-03-18T18:11:54.202Z,35.75
2019-03-18T18:14:20.530Z,35.78
2019-03-18T18:16:46.844Z,36.09
2019-03-18T18:19:13.235Z,36.14
2019-03-18T18:21:39.541Z,36.16
2019-03-18T18:24:05.852Z,36.22
2019-03-18T18:26:32.157Z,36.36
2019-03-18T18:28:58.510Z,36.46
2019-03-18T18:31:24.829Z,36.54
2019-03-18T18:33:51.141Z,36.47
2019-03-18T18:36:17.491Z,36.51
2019-03-18T18:38:43.803Z,36.49
2019-03-18T18:41:10.147Z,36.48
2019-03-18T18:43:36.456Z,36.47
2019-03-18T18:46:02.786Z,36.50
2019-03-18T18:48:29.093Z,36.58
2019-03-18T18:50:55.402Z,36.67
2019-03-18T18:53:26.518Z,36.83
2019-03-18T18:55:48.036Z,36.96
2019-03-18T18:58:14.345Z,37.35
2019-03-18T19:00:40.683Z,37.38
2019-03-18T19:03:06.997Z,37.38
2019-03-18T19:05:33.306Z,37.48
2019-03-18T19:07:59.638Z,37.61
2019-03-18T19:10:25.947Z,37.82
2019-03-18T19:12:52.259Z,37.89
2019-03-18T19:15:18.591Z,37.95
2019-03-18T19:17:44.897Z,38.07
2019-03-18T19:20:11.241Z,38.20
2019-03-18T19:22:37.552Z,38.35
2019-03-18T19:25:03.864Z,38.53
2019-03-18T19:27:30.201Z,38.51
2019-03-18T19:29:56.518Z,38.48
2019-03-18T19:32:22.870Z,38.39
2019-03-18T19:34:49.195Z,38.72
2019-03-18T19:37:15.504Z,38.90
2019-03-18T19:39:41.924Z,38.86
2019-03-18T19:42:08.246Z,39.12
2019-03-18T19:44:34.568Z,39.16
2019-03-18T19:47:00.886Z,40.44
2019-03-18T19:49:27.307Z,43.85
2019-03-18T19:51:53.617Z,44.04
2019-03-18T19:54:19.931Z,44.45
2019-03-18T19:56:46.428Z,44.88
2019-03-18T19:59:12.690Z,45.31
2019-03-18T20:01:39.003Z,45.75
2019-03-18T20:04:05.302Z,45.91
2019-03-18T20:06:31.669Z,47.26
2019-03-18T20:08:58.054Z,47.79
2019-03-18T20:11:24.342Z,48.34
2019-03-18T20:13:50.651Z,48.98
2019-03-18T20:16:16.952Z,49.60
2019-03-18T20:18:43.304Z,50.16
2019-03-18T20:21:09.615Z,50.67
2019-03-18T20:23:35.920Z,51.38
2019-03-18T20:26:02.238Z,51.96
2019-03-18T20:28:28.540Z,52.43
2019-03-18T20:30:54.893Z,53.00
2019-03-18T20:33:21.201Z,53.54
2019-03-18T20:35:47.624Z,54.15
2019-03-18T20:38:13.937Z,54.74
2019-03-18T20:40:40.245Z,55.33
2019-03-18T20:43:06.563Z,55.94
2019-03-18T20:45:32.872Z,56.40
2019-03-18T20:47:59.258Z,56.97
2019-03-18T20:50:25.548Z,57.57
2019-03-18T20:52:51.859Z,58.03
2019-03-18T20:55:18.173Z,58.56
2019-03-18T20:57:44.520Z,59.14
2019-03-18T21:00:10.802Z,59.61
2019-03-18T21:02:37.111Z,60.13
2019-03-18T21:05:03.438Z,60.59
2019-03-18T21:07:29.749Z,61.01
2019-03-18T21:09:56.062Z,61.48
2019-03-18T21:12:22.371Z,61.95
2019-03-18T21:14:52.311Z,62.36
2019-03-18T21:17:18.614Z,62.79
2019-03-18T21:19:44.955Z,63.33
2019-03-18T21:22:11.297Z,63.62
2019-03-18T21:24:37.609Z,64.16
2019-03-18T21:27:03.924Z,64.58
2019-03-18T21:29:30.264Z,65.02
2019-03-18T21:31:56.570Z,65.35
2019-03-18T21:34:22.915Z,65.86
2019-03-18T21:36:49.189Z,66.48
2019-03-18T21:39:17.877Z,66.70
2019-03-18T21:41:41.833Z,67.05
2019-03-18T21:44:08.179Z,67.52
2019-03-18T21:46:34.454Z,67.80
2019-03-18T21:49:00.796Z,68.24
2019-03-18T21:51:27.129Z,68.58
2019-03-18T21:53:53.439Z,69.02
2019-03-18T21:56:19.742Z,69.33
2019-03-18T21:58:46.139Z,69.67
2019-03-18T22:01:12.458Z,69.93
2019-03-18T22:03:38.829Z,70.25
2019-03-18T22:06:05.166Z,70.59
2019-03-18T22:08:31.494Z,71.25
2019-03-18T22:10:57.796Z,71.44
2019-03-18T22:13:24.154Z,71.79
2019-03-18T22:15:50.461Z,72.13
2019-03-18T22:18:16.819Z,72.48
2019-03-18T22:20:43.130Z,72.82
2019-03-18T22:23:09.479Z,73.15
2019-03-18T22:25:35.801Z,73.49
2019-03-18T22:28:02.107Z,73.74
2019-03-18T22:30:28.443Z,74.09
2019-03-18T22:32:54.765Z,74.51
2019-03-18T22:35:21.076Z,74.89
2019-03-18T22:37:47.406Z,75.02
2019-03-18T22:40:13.749Z,75.23
2019-03-18T22:42:40.068Z,75.59
2019-03-18T22:45:06.405Z,75.90
2019-03-18T22:47:32.679Z,76.31
2019-03-18T22:49:58.993Z,76.68
2019-03-18T22:52:25.319Z,77.02
2019-03-18T22:54:55.863Z,77.28
2019-03-18T22:57:18.534Z,77.54
2019-03-18T22:59:44.850Z,77.80
2019-03-18T23:02:11.155Z,77.79
2019-03-18T23:04:37.508Z,78.18
2019-03-18T23:07:03.829Z,78.65
2019-03-18T23:09:30.131Z,78.99
2019-03-18T23:11:56.481Z,79.36
2019-03-18T23:14:22.788Z,79.63
2019-03-18T23:16:49.105Z,79.97
2019-03-18T23:19:15.414Z,80.31
2019-03-18T23:21:41.725Z,80.62
2019-03-18T23:24:08.030Z,81.00
2019-03-18T23:26:34.341Z,81.31
2019-03-18T23:29:00.645Z,81.61
2019-03-18T23:31:26.982Z,82.09
2019-03-18T23:33:53.294Z,82.24
2019-03-18T23:36:19.595Z,82.53
2019-03-18T23:38:45.917Z,82.86
2019-03-18T23:41:12.242Z,83.15
2019-03-18T23:43:38.551Z,83.52
2019-03-18T23:46:04.984Z,83.89
2019-03-18T23:48:31.302Z,84.19
2019-03-18T23:50:57.619Z,84.71
2019-03-18T23:53:23.935Z,85.09
2019-03-18T23:55:50.250Z,85.42
2019-03-18T23:58:16.563Z,85.74
